sensor_id;sensor_type;location;lat;lon;timestamp;pressure;altitude;pressure_sealevel;temperature;humidity
76358;BME280;65185;21.060;105.826;2023-05-07T00:00:20;100255.19;;;28.90;100.00
76358;BME280;65185;21.060;105.826;2023-05-07T00:02:47;100265.06;;;28.95;100.00
76358;BME280;65185;21.060;105.826;2023-05-07T00:05:14;100264.69;;;28.97;100.00
76358;BME280;65185;21.060;105.826;2023-05-07T00:07:41;100256.38;;;29.00;100.00
76358;BME280;65185;21.060;105.826;2023-05-07T00:10:08;100256.00;;;29.02;100.00
76358;BME280;65185;21.060;105.826;2023-05-07T00:12:35;100267.06;;;29.05;100.00
76358;BME280;65185;21.060;105.826;2023-05-07T00:15:05;100269.44;;;29.07;100.00
76358;BME280;65185;21.060;105.826;2023-05-07T00:17:33;100269.06;;;29.08;100.00
76358;BME280;65185;21.060;105.826;2023-05-07T00:20:00;100279.72;;;29.10;100.00
76358;BME280;65185;21.060;105.826;2023-05-07T00:22:26;100265.91;;;29.13;100.00
76358;BME280;65185;21.060;105.826;2023-05-07T00:24:54;100275.00;;;29.17;100.00
76358;BME280;65185;21.060;105.826;2023-05-07T00:27:21;100268.66;;;29.20;100.00
76358;BME280;65185;21.060;105.826;2023-05-07T00:29:48;100270.28;;;29.25;100.00
76358;BME280;65185;21.060;105.826;2023-05-07T00:32:15;100274.63;;;29.29;100.00
76358;BME280;65185;21.060;105.826;2023-05-07T00:34:43;100271.88;;;29.33;100.00
76358;BME280;65185;21.060;105.826;2023-05-07T00:37:10;100282.19;;;29.36;100.00
76358;BME280;65185;21.060;105.826;2023-05-07T00:39:37;100281.75;;;29.38;100.00
76358;BME280;65185;21.060;105.826;2023-05-07T00:42:04;100276.63;;;29.40;100.00
76358;BME280;65185;21.060;105.826;2023-05-07T00:44:31;100284.53;;;29.41;100.00
76358;BME280;65185;21.060;105.826;2023-05-07T00:46:58;100298.75;;;29.43;100.00
76358;BME280;65185;21.060;105.826;2023-05-07T00:49:37;100295.59;;;29.45;100.00
76358;BME280;65185;21.060;105.826;2023-05-07T00:52:06;100298.00;;;29.46;100.00
76358;BME280;65185;21.060;105.826;2023-05-07T00:54:34;100302.72;;;29.49;100.00
76358;BME280;65185;21.060;105.826;2023-05-07T00:57:02;100297.19;;;29.49;100.00
76358;BME280;65185;21.060;105.826;2023-05-07T00:59:31;100297.97;;;29.50;100.00
76358;BME280;65185;21.060;105.826;2023-05-07T01:01:59;100300.38;;;29.51;100.00
76358;BME280;65185;21.060;105.826;2023-05-07T01:04:26;100308.25;;;29.49;100.00
76358;BME280;65185;21.060;105.826;2023-05-07T01:06:55;100310.63;;;29.51;100.00
76358;BME280;65185;21.060;105.826;2023-05-07T01:09:24;100314.19;;;29.51;100.00
76358;BME280;65185;21.060;105.826;2023-05-07T01:11:51;100311.44;;;29.51;100.00
76358;BME280;65185;21.060;105.826;2023-05-07T01:14:18;100318.56;;;29.52;100.00
76358;BME280;65185;21.060;105.826;2023-05-07T01:16:47;100329.63;;;29.52;100.00
76358;BME280;65185;21.060;105.826;2023-05-07T01:19:17;100326.84;;;29.56;100.00
76358;BME280;65185;21.060;105.826;2023-05-07T01:21:46;100318.53;;;29.56;100.00
76358;BME280;65185;21.060;105.826;2023-05-07T01:24:13;100323.69;;;29.57;100.00
76358;BME280;65185;21.060;105.826;2023-05-07T01:26:41;100323.31;;;29.59;100.00
76358;BME280;65185;21.060;105.826;2023-05-07T01:29:08;100327.63;;;29.60;100.00
76358;BME280;65185;21.060;105.826;2023-05-07T01:31:35;100334.78;;;29.64;100.00
76358;BME280;65185;21.060;105.826;2023-05-07T01:34:04;100335.16;;;29.66;100.00
76358;BME280;65185;21.060;105.826;2023-05-07T01:36:32;100325.66;;;29.67;100.00
76358;BME280;65185;21.060;105.826;2023-05-07T01:39:00;100332.78;;;29.68;100.00
76358;BME280;65185;21.060;105.826;2023-05-07T01:41:27;100331.63;;;29.69;100.00
76358;BME280;65185;21.060;105.826;2023-05-07T01:43:55;100338.34;;;29.68;100.00
76358;BME280;65185;21.060;105.826;2023-05-07T01:46:23;100340.28;;;29.71;100.00
76358;BME280;65185;21.060;105.826;2023-05-07T01:48:50;100339.13;;;29.72;100.00
76358;BME280;65185;21.060;105.826;2023-05-07T01:51:17;100348.59;;;29.71;100.00
76358;BME280;65185;21.060;105.826;2023-05-07T01:53:57;100349.78;;;29.70;100.00
76358;BME280;65185;21.060;105.826;2023-05-07T01:56:24;100347.41;;;29.72;100.00
76358;BME280;65185;21.060;105.826;2023-05-07T01:58:51;100346.25;;;29.73;100.00
76358;BME280;65185;21.060;105.826;2023-05-07T02:01:18;100343.47;;;29.73;100.00
76358;BME280;65185;21.060;105.826;2023-05-07T02:03:44;100349.78;;;29.77;100.00
76358;BME280;65185;21.060;105.826;2023-05-07T02:06:11;100352.59;;;29.81;100.00
76358;BME280;65185;21.060;105.826;2023-05-07T02:08:37;100352.56;;;29.85;100.00
76358;BME280;65185;21.060;105.826;2023-05-07T02:11:04;100363.63;;;29.88;100.00
76358;BME280;65185;21.060;105.826;2023-05-07T02:13:32;100354.94;;;29.90;100.00
76358;BME280;65185;21.060;105.826;2023-05-07T02:15:59;100351.81;;;29.95;100.00
76358;BME280;65185;21.060;105.826;2023-05-07T02:18:25;100353.81;;;29.98;100.00
76358;BME280;65185;21.060;105.826;2023-05-07T02:20:52;100350.22;;;30.04;100.00
76358;BME280;65185;21.060;105.826;2023-05-07T02:23:18;100345.84;;;30.10;100.00
76358;BME280;65185;21.060;105.826;2023-05-07T02:25:45;100339.91;;;30.15;100.00
76358;BME280;65185;21.060;105.826;2023-05-07T02:28:12;100336.75;;;30.17;100.00
76358;BME280;65185;21.060;105.826;2023-05-07T02:30:38;100340.31;;;30.25;100.00
76358;BME280;65185;21.060;105.826;2023-05-07T02:33:06;100333.59;;;30.26;100.00
76358;BME280;65185;21.060;105.826;2023-05-07T02:35:33;100339.91;;;30.37;100.00
76358;BME280;65185;21.060;105.826;2023-05-07T02:38:00;100333.53;;;30.43;100.00
76358;BME280;65185;21.060;105.826;2023-05-07T02:40:27;100335.53;;;30.53;100.00
76358;BME280;65185;21.060;105.826;2023-05-07T02:42:53;100341.44;;;30.59;100.00
76358;BME280;65185;21.060;105.826;2023-05-07T02:45:20;100331.13;;;30.63;100.00
76358;BME280;65185;21.060;105.826;2023-05-07T02:47:46;100344.97;;;30.70;100.00
76358;BME280;65185;21.060;105.826;2023-05-07T02:50:12;100344.94;;;30.74;100.00
76358;BME280;65185;21.060;105.826;2023-05-07T02:52:39;100356.44;;;30.76;100.00
76358;BME280;65185;21.060;105.826;2023-05-07T02:55:06;100356.03;;;30.74;100.00
76358;BME280;65185;21.060;105.826;2023-05-07T02:57:32;100354.06;;;30.71;100.00
76358;BME280;65185;21.060;105.826;2023-05-07T02:59:59;100347.75;;;30.70;100.00
76358;BME280;65185;21.060;105.826;2023-05-07T03:02:25;100356.47;;;30.69;100.00
76358;BME280;65185;21.060;105.826;2023-05-07T03:04:52;100347.75;;;30.67;100.00
76358;BME280;65185;21.060;105.826;2023-05-07T03:07:18;100340.22;;;30.74;100.00
76358;BME280;65185;21.060;105.826;2023-05-07T03:09:45;100343.72;;;30.82;100.00
76358;BME280;65185;21.060;105.826;2023-05-07T03:12:11;100344.53;;;30.86;100.00
76358;BME280;65185;21.060;105.826;2023-05-07T03:14:37;100334.59;;;30.92;100.00
76358;BME280;65185;21.060;105.826;2023-05-07T03:17:04;100345.22;;;31.01;100.00
76358;BME280;65185;21.060;105.826;2023-05-07T03:19:30;100342.84;;;31.06;100.00
76358;BME280;65185;21.060;105.826;2023-05-07T03:21:57;100331.34;;;31.11;100.00
76358;BME280;65185;21.060;105.826;2023-05-07T03:24:23;100333.69;;;31.16;100.00
76358;BME280;65185;21.060;105.826;2023-05-07T03:26:50;100335.63;;;31.23;100.00
76358;BME280;65185;21.060;105.826;2023-05-07T03:29:16;100327.66;;;31.28;100.00
76358;BME280;65185;21.060;105.826;2023-05-07T03:31:43;100325.63;;;31.39;100.00
76358;BME280;65185;21.060;105.826;2023-05-07T03:34:09;100321.16;;;31.53;100.00
76358;BME280;65185;21.060;105.826;2023-05-07T03:36:36;100323.16;;;31.52;100.00
76358;BME280;65185;21.060;105.826;2023-05-07T03:39:02;100327.06;;;31.62;100.00
76358;BME280;65185;21.060;105.826;2023-05-07T03:41:29;100329.03;;;31.65;100.00
76358;BME280;65185;21.060;105.826;2023-05-07T03:43:56;100325.81;;;31.70;100.00
76358;BME280;65185;21.060;105.826;2023-05-07T03:46:22;100321.88;;;31.67;100.00
76358;BME280;65185;21.060;105.826;2023-05-07T03:48:51;100317.94;;;31.61;100.00
76358;BME280;65185;21.060;105.826;2023-05-07T03:51:18;100313.25;;;31.51;100.00
76358;BME280;65185;21.060;105.826;2023-05-07T03:53:44;100318.75;;;31.55;100.00
76358;BME280;65185;21.060;105.826;2023-05-07T03:56:11;100315.31;;;31.40;100.00
76358;BME280;65185;21.060;105.826;2023-05-07T03:58:37;100312.84;;;31.49;100.00
76358;BME280;65185;21.060;105.826;2023-05-07T04:01:04;100308.03;;;31.60;100.00
76358;BME280;65185;21.060;105.826;2023-05-07T04:03:30;100303.53;;;31.77;100.00
76358;BME280;65185;21.060;105.826;2023-05-07T04:05:57;100306.59;;;31.90;100.00
76358;BME280;65185;21.060;105.826;2023-05-07T04:08:23;100291.81;;;32.03;100.00
76358;BME280;65185;21.060;105.826;2023-05-07T04:10:55;100306.44;;;32.07;100.00
76358;BME280;65185;21.060;105.826;2023-05-07T04:13:21;100301.63;;;32.15;100.00
76358;BME280;65185;21.060;105.826;2023-05-07T04:15:48;100296.88;;;32.12;100.00
76358;BME280;65185;21.060;105.826;2023-05-07T04:18:15;100287.97;;;32.28;100.00
76358;BME280;65185;21.060;105.826;2023-05-07T04:20:41;100284.00;;;32.29;100.00
76358;BME280;65185;21.060;105.826;2023-05-07T04:23:08;100277.78;;;32.17;100.00
76358;BME280;65185;21.060;105.826;2023-05-07T04:25:34;100278.50;;;32.25;100.00
76358;BME280;65185;21.060;105.826;2023-05-07T04:28:01;100277.75;;;32.21;100.00
76358;BME280;65185;21.060;105.826;2023-05-07T04:30:27;100273.47;;;32.09;100.00
76358;BME280;65185;21.060;105.826;2023-05-07T04:32:54;100266.81;;;32.03;100.00
76358;BME280;65185;21.060;105.826;2023-05-07T04:35:20;100271.59;;;31.99;100.00
76358;BME280;65185;21.060;105.826;2023-05-07T04:37:51;100265.97;;;32.06;100.00
76358;BME280;65185;21.060;105.826;2023-05-07T04:40:17;100267.84;;;32.16;100.00
76358;BME280;65185;21.060;105.826;2023-05-07T04:42:44;100264.03;;;32.41;100.00
76358;BME280;65185;21.060;105.826;2023-05-07T04:45:11;100261.44;;;32.57;100.00
76358;BME280;65185;21.060;105.826;2023-05-07T04:47:38;100262.31;;;32.50;100.00
76358;BME280;65185;21.060;105.826;2023-05-07T04:50:06;100262.56;;;32.29;100.00
76358;BME280;65185;21.060;105.826;2023-05-07T04:52:34;100254.34;;;32.18;100.00
76358;BME280;65185;21.060;105.826;2023-05-07T04:55:00;100254.81;;;32.13;100.00
76358;BME280;65185;21.060;105.826;2023-05-07T04:57:27;100246.22;;;31.97;100.00
76358;BME280;65185;21.060;105.826;2023-05-07T04:59:54;100239.00;;;32.03;100.00
76358;BME280;65185;21.060;105.826;2023-05-07T05:02:21;100241.34;;;32.08;100.00
76358;BME280;65185;21.060;105.826;2023-05-07T05:04:48;100238.25;;;31.99;100.00
76358;BME280;65185;21.060;105.826;2023-05-07T05:07:14;100240.72;;;31.90;100.00
76358;BME280;65185;21.060;105.826;2023-05-07T05:09:40;100235.69;;;31.78;100.00
76358;BME280;65185;21.060;105.826;2023-05-07T05:12:07;100232.47;;;31.83;100.00
76358;BME280;65185;21.060;105.826;2023-05-07T05:14:33;100227.75;;;31.80;100.00
76358;BME280;65185;21.060;105.826;2023-05-07T05:17:00;100233.56;;;31.93;100.00
76358;BME280;65185;21.060;105.826;2023-05-07T05:19:26;100226.47;;;31.88;100.00
76358;BME280;65185;21.060;105.826;2023-05-07T05:21:53;100220.03;;;31.95;100.00
76358;BME280;65185;21.060;105.826;2023-05-07T05:24:19;100220.84;;;31.95;100.00
76358;BME280;65185;21.060;105.826;2023-05-07T05:26:45;100224.06;;;31.90;100.00
76358;BME280;65185;21.060;105.826;2023-05-07T05:29:12;100206.69;;;31.83;100.00
76358;BME280;65185;21.060;105.826;2023-05-07T05:31:38;100198.69;;;31.88;100.00
76358;BME280;65185;21.060;105.826;2023-05-07T05:34:05;100201.91;;;31.83;100.00
76358;BME280;65185;21.060;105.826;2023-05-07T05:36:31;100199.56;;;31.82;100.00
76358;BME280;65185;21.060;105.826;2023-05-07T05:38:58;100195.53;;;31.86;100.00
76358;BME280;65185;21.060;105.826;2023-05-07T05:41:24;100187.94;;;31.90;100.00
76358;BME280;65185;21.060;105.826;2023-05-07T05:43:51;100189.00;;;32.03;100.00
76358;BME280;65185;21.060;105.826;2023-05-07T05:46:17;100188.56;;;32.05;100.00
76358;BME280;65185;21.060;105.826;2023-05-07T05:48:44;100182.69;;;31.99;100.00
76358;BME280;65185;21.060;105.826;2023-05-07T05:51:10;100171.28;;;31.90;100.00
76358;BME280;65185;21.060;105.826;2023-05-07T05:53:37;100174.81;;;31.94;100.00
76358;BME280;65185;21.060;105.826;2023-05-07T05:56:03;100175.13;;;32.00;100.00
76358;BME280;65185;21.060;105.826;2023-05-07T05:58:30;100173.94;;;32.01;100.00
76358;BME280;65185;21.060;105.826;2023-05-07T06:00:57;100168.91;;;31.92;100.00
76358;BME280;65185;21.060;105.826;2023-05-07T06:03:24;100161.38;;;31.89;100.00
76358;BME280;65185;21.060;105.826;2023-05-07T06:05:50;100157.44;;;31.87;100.00
76358;BME280;65185;21.060;105.826;2023-05-07T06:08:17;100143.09;;;31.92;100.00
76358;BME280;65185;21.060;105.826;2023-05-07T06:10:44;100142.69;;;31.93;100.00
76358;BME280;65185;21.060;105.826;2023-05-07T06:13:10;100144.63;;;31.96;100.00
76358;BME280;65185;21.060;105.826;2023-05-07T06:15:37;100135.84;;;32.01;100.00
76358;BME280;65185;21.060;105.826;2023-05-07T06:18:03;100134.97;;;32.08;100.00
76358;BME280;65185;21.060;105.826;2023-05-07T06:20:30;100135.78;;;32.05;100.00
76358;BME280;65185;21.060;105.826;2023-05-07T06:22:56;100125.47;;;32.05;100.00
76358;BME280;65185;21.060;105.826;2023-05-07T06:25:22;100125.47;;;32.05;100.00
76358;BME280;65185;21.060;105.826;2023-05-07T06:27:49;100121.06;;;32.08;100.00
76358;BME280;65185;21.060;105.826;2023-05-07T06:30:15;100115.66;;;31.97;100.00
76358;BME280;65185;21.060;105.826;2023-05-07T06:32:42;100103.44;;;31.91;100.00
76358;BME280;65185;21.060;105.826;2023-05-07T06:35:08;100099.44;;;31.92;100.00
76358;BME280;65185;21.060;105.826;2023-05-07T06:37:35;100100.19;;;31.96;100.00
76358;BME280;65185;21.060;105.826;2023-05-07T06:40:05;100100.97;;;31.97;100.00
76358;BME280;65185;21.060;105.826;2023-05-07T06:42:32;100094.22;;;31.98;100.00
76358;BME280;65185;21.060;105.826;2023-05-07T06:44:59;100085.50;;;31.96;100.00
76358;BME280;65185;21.060;105.826;2023-05-07T06:47:25;100080.66;;;32.03;100.00
76358;BME280;65185;21.060;105.826;2023-05-07T06:49:52;100076.56;;;32.11;100.00
76358;BME280;65185;21.060;105.826;2023-05-07T06:52:18;100068.22;;;32.11;100.00
76358;BME280;65185;21.060;105.826;2023-05-07T06:54:45;100068.41;;;32.28;100.00
76358;BME280;65185;21.060;105.826;2023-05-07T06:57:11;100068.81;;;32.30;100.00
76358;BME280;65185;21.060;105.826;2023-05-07T06:59:37;100066.13;;;32.23;100.00
76358;BME280;65185;21.060;105.826;2023-05-07T07:02:04;100049.50;;;32.19;100.00
76358;BME280;65185;21.060;105.826;2023-05-07T07:04:31;100055.59;;;32.07;100.00
76358;BME280;65185;21.060;105.826;2023-05-07T07:06:57;100044.56;;;32.00;100.00
76358;BME280;65185;21.060;105.826;2023-05-07T07:09:24;100037.47;;;31.99;100.00
76358;BME280;65185;21.060;105.826;2023-05-07T07:11:50;100032.66;;;31.99;100.00
76358;BME280;65185;21.060;105.826;2023-05-07T07:14:45;100034.50;;;32.13;100.00
76358;BME280;65185;21.060;105.826;2023-05-07T07:17:11;100033.78;;;32.05;100.00
76358;BME280;65185;21.060;105.826;2023-05-07T07:19:38;100038.88;;;32.10;100.00
76358;BME280;65185;21.060;105.826;2023-05-07T07:22:05;100032.59;;;32.06;100.00
76358;BME280;65185;21.060;105.826;2023-05-07T07:24:31;100028.75;;;31.97;100.00
76358;BME280;65185;21.060;105.826;2023-05-07T07:26:58;100027.50;;;32.01;100.00
76358;BME280;65185;21.060;105.826;2023-05-07T07:29:24;100030.16;;;32.12;100.00
76358;BME280;65185;21.060;105.826;2023-05-07T07:31:52;100021.47;;;32.06;100.00
76358;BME280;65185;21.060;105.826;2023-05-07T07:34:18;100009.31;;;31.97;100.00
76358;BME280;65185;21.060;105.826;2023-05-07T07:36:45;99999.41;;;31.96;100.00
76358;BME280;65185;21.060;105.826;2023-05-07T07:39:11;100003.69;;;32.00;100.00
76358;BME280;65185;21.060;105.826;2023-05-07T07:41:38;99995.41;;;31.97;100.00
76358;BME280;65185;21.060;105.826;2023-05-07T07:44:04;100000.91;;;32.00;100.00
76358;BME280;65185;21.060;105.826;2023-05-07T07:46:33;99999.25;;;32.06;100.00
76358;BME280;65185;21.060;105.826;2023-05-07T07:49:00;99994.09;;;32.05;100.00
76358;BME280;65185;21.060;105.826;2023-05-07T07:51:26;99987.47;;;31.99;100.00
76358;BME280;65185;21.060;105.826;2023-05-07T07:53:53;99995.00;;;31.98;100.00
76358;BME280;65185;21.060;105.826;2023-05-07T07:56:19;99989.78;;;32.04;100.00
76358;BME280;65185;21.060;105.826;2023-05-07T07:58:46;99989.06;;;31.96;100.00
76358;BME280;65185;21.060;105.826;2023-05-07T08:01:12;99986.78;;;31.91;100.00
76358;BME280;65185;21.060;105.826;2023-05-07T08:03:39;99984.31;;;31.97;100.00
76358;BME280;65185;21.060;105.826;2023-05-07T08:06:05;99987.00;;;32.04;100.00
76358;BME280;65185;21.060;105.826;2023-05-07T08:08:32;99990.56;;;32.04;100.00
76358;BME280;65185;21.060;105.826;2023-05-07T08:11:03;99981.31;;;32.11;100.00
76358;BME280;65185;21.060;105.826;2023-05-07T08:13:31;99978.47;;;32.18;100.00
76358;BME280;65185;21.060;105.826;2023-05-07T08:15:57;99989.56;;;32.18;100.00
76358;BME280;65185;21.060;105.826;2023-05-07T08:18:25;99985.22;;;32.17;100.00
76358;BME280;65185;21.060;105.826;2023-05-07T08:20:54;99986.84;;;32.14;100.00
76358;BME280;65185;21.060;105.826;2023-05-07T08:23:21;99976.16;;;32.13;100.00
76358;BME280;65185;21.060;105.826;2023-05-07T08:25:49;99970.97;;;32.11;100.00
76358;BME280;65185;21.060;105.826;2023-05-07T08:28:15;99976.19;;;32.09;100.00
76358;BME280;65185;21.060;105.826;2023-05-07T08:30:42;99970.25;;;32.07;100.00
76358;BME280;65185;21.060;105.826;2023-05-07T08:33:09;99961.94;;;32.07;100.00
76358;BME280;65185;21.060;105.826;2023-05-07T08:35:35;99969.34;;;32.17;100.00
76358;BME280;65185;21.060;105.826;2023-05-07T08:38:02;99969.34;;;32.17;100.00
76358;BME280;65185;21.060;105.826;2023-05-07T08:40:28;99965.84;;;32.13;100.00
76358;BME280;65185;21.060;105.826;2023-05-07T08:42:56;99950.75;;;32.14;100.00
76358;BME280;65185;21.060;105.826;2023-05-07T08:45:23;99958.28;;;32.14;100.00
76358;BME280;65185;21.060;105.826;2023-05-07T08:47:52;99951.09;;;32.16;100.00
76358;BME280;65185;21.060;105.826;2023-05-07T08:50:22;99947.09;;;32.17;100.00
76358;BME280;65185;21.060;105.826;2023-05-07T08:52:48;99955.84;;;32.16;100.00
76358;BME280;65185;21.060;105.826;2023-05-07T08:55:15;99949.06;;;32.21;100.00
76358;BME280;65185;21.060;105.826;2023-05-07T08:57:41;99949.47;;;32.19;100.00
76358;BME280;65185;21.060;105.826;2023-05-07T09:00:08;99949.38;;;32.26;100.00
76358;BME280;65185;21.060;105.826;2023-05-07T09:02:36;99940.88;;;32.33;100.00
76358;BME280;65185;21.060;105.826;2023-05-07T09:05:03;99930.63;;;32.30;100.00
76358;BME280;65185;21.060;105.826;2023-05-07T09:07:30;99941.84;;;32.23;100.00
76358;BME280;65185;21.060;105.826;2023-05-07T09:09:57;99938.19;;;32.30;100.00
76358;BME280;65185;21.060;105.826;2023-05-07T09:12:23;99936.41;;;32.16;100.00
76358;BME280;65185;21.060;105.826;2023-05-07T09:14:50;99944.41;;;32.10;100.00
76358;BME280;65185;21.060;105.826;2023-05-07T09:17:16;99946.38;;;32.13;100.00
76358;BME280;65185;21.060;105.826;2023-05-07T09:19:46;99940.41;;;32.11;100.00
76358;BME280;65185;21.060;105.826;2023-05-07T09:22:12;99943.63;;;32.10;100.00
76358;BME280;65185;21.060;105.826;2023-05-07T09:24:39;99952.38;;;32.08;100.00
76358;BME280;65185;21.060;105.826;2023-05-07T09:27:06;99949.09;;;32.17;100.00
76358;BME280;65185;21.060;105.826;2023-05-07T09:29:35;99937.19;;;32.16;100.00
76358;BME280;65185;21.060;105.826;2023-05-07T09:32:07;99927.72;;;32.10;100.00
76358;BME280;65185;21.060;105.826;2023-05-07T09:34:34;99937.09;;;32.24;100.00
76358;BME280;65185;21.060;105.826;2023-05-07T09:37:02;99935.31;;;32.33;100.00
76358;BME280;65185;21.060;105.826;2023-05-07T09:39:46;99941.69;;;32.34;100.00
76358;BME280;65185;21.060;105.826;2023-05-07T09:42:13;99956.75;;;32.36;100.00
76358;BME280;65185;21.060;105.826;2023-05-07T09:44:47;99960.91;;;32.48;100.00
76358;BME280;65185;21.060;105.826;2023-05-07T09:47:19;99971.28;;;32.44;100.00
76358;BME280;65185;21.060;105.826;2023-05-07T09:49:47;99970.16;;;32.41;100.00
76358;BME280;65185;21.060;105.826;2023-05-07T09:52:15;99976.44;;;32.45;100.00
76358;BME280;65185;21.060;105.826;2023-05-07T09:54:43;99971.75;;;32.39;100.00
76358;BME280;65185;21.060;105.826;2023-05-07T09:57:11;99977.78;;;32.37;100.00
76358;BME280;65185;21.060;105.826;2023-05-07T09:59:43;99999.63;;;32.35;100.00
76358;BME280;65185;21.060;105.826;2023-05-07T10:02:10;99990.19;;;32.29;100.00
76358;BME280;65185;21.060;105.826;2023-05-07T10:04:37;100005.28;;;32.28;100.00
76358;BME280;65185;21.060;105.826;2023-05-07T10:07:04;100006.25;;;32.18;100.00
76358;BME280;65185;21.060;105.826;2023-05-07T10:09:32;100011.00;;;32.17;100.00
76358;BME280;65185;21.060;105.826;2023-05-07T10:11:59;100024.56;;;32.15;100.00
76358;BME280;65185;21.060;105.826;2023-05-07T10:14:28;100017.50;;;32.07;100.00
76358;BME280;65185;21.060;105.826;2023-05-07T10:16:56;100029.53;;;31.97;100.00
76358;BME280;65185;21.060;105.826;2023-05-07T10:19:23;100045.00;;;31.98;100.00
76358;BME280;65185;21.060;105.826;2023-05-07T10:22:01;100035.91;;;31.94;100.00
76358;BME280;65185;21.060;105.826;2023-05-07T10:24:33;100045.00;;;31.98;100.00
76358;BME280;65185;21.060;105.826;2023-05-07T10:27:02;100050.25;;;31.93;100.00
76358;BME280;65185;21.060;105.826;2023-05-07T10:35:01;100042.16;;;31.71;100.00
76358;BME280;65185;21.060;105.826;2023-05-07T10:37:29;100059.25;;;31.70;100.00
76358;BME280;65185;21.060;105.826;2023-05-07T10:39:56;100061.72;;;31.61;100.00
76358;BME280;65185;21.060;105.826;2023-05-07T10:42:23;100076.50;;;31.51;100.00
76358;BME280;65185;21.060;105.826;2023-05-07T10:44:50;100080.84;;;31.52;100.00
76358;BME280;65185;21.060;105.826;2023-05-07T10:47:17;100077.78;;;31.43;100.00
76358;BME280;65185;21.060;105.826;2023-05-07T10:52:17;100104.81;;;31.35;100.00
76358;BME280;65185;21.060;105.826;2023-05-07T10:54:45;100104.78;;;31.38;100.00
76358;BME280;65185;21.060;105.826;2023-05-07T10:57:33;100108.94;;;31.20;100.00
76358;BME280;65185;21.060;105.826;2023-05-07T11:05:29;100134.31;;;31.18;100.00
76358;BME280;65185;21.060;105.826;2023-05-07T11:07:58;100132.88;;;30.96;100.00
76358;BME280;65185;21.060;105.826;2023-05-07T11:10:51;100144.03;;;30.89;100.00
76358;BME280;65185;21.060;105.826;2023-05-07T11:13:19;100148.81;;;30.85;100.00
76358;BME280;65185;21.060;105.826;2023-05-07T11:16:05;100147.63;;;30.86;100.00
76358;BME280;65185;21.060;105.826;2023-05-07T11:18:50;100155.94;;;30.82;100.00
76358;BME280;65185;21.060;105.826;2023-05-07T11:21:37;100157.19;;;30.78;100.00
76358;BME280;65185;21.060;105.826;2023-05-07T11:24:05;100160.38;;;30.73;100.00
76358;BME280;65185;21.060;105.826;2023-05-07T11:26:44;100161.53;;;30.79;100.00
76358;BME280;65185;21.060;105.826;2023-05-07T11:29:15;100175.91;;;30.60;100.00
76358;BME280;65185;21.060;105.826;2023-05-07T11:31:42;100202.47;;;30.57;100.00
76358;BME280;65185;21.060;105.826;2023-05-07T11:34:09;100229.75;;;30.62;100.00
76358;BME280;65185;21.060;105.826;2023-05-07T11:36:37;100233.72;;;30.61;100.00
76358;BME280;65185;21.060;105.826;2023-05-07T11:39:26;100240.88;;;30.55;100.00
76358;BME280;65185;21.060;105.826;2023-05-07T11:41:53;100231.34;;;30.60;100.00
76358;BME280;65185;21.060;105.826;2023-05-07T11:44:20;100224.25;;;30.59;100.00
76358;BME280;65185;21.060;105.826;2023-05-07T11:46:46;100227.44;;;30.50;100.00
76358;BME280;65185;21.060;105.826;2023-05-07T11:49:13;100218.69;;;30.55;100.00
76358;BME280;65185;21.060;105.826;2023-05-07T11:51:40;100231.78;;;30.51;100.00
76358;BME280;65185;21.060;105.826;2023-05-07T11:54:08;100251.97;;;30.44;100.00
76358;BME280;65185;21.060;105.826;2023-05-07T11:56:37;100267.41;;;30.45;100.00
76358;BME280;65185;21.060;105.826;2023-05-07T11:59:05;100281.28;;;30.49;100.00
76358;BME280;65185;21.060;105.826;2023-05-07T12:01:31;100276.91;;;30.44;100.00
76358;BME280;65185;21.060;105.826;2023-05-07T12:03:58;100276.91;;;30.44;100.00
76358;BME280;65185;21.060;105.826;2023-05-07T12:06:24;100290.00;;;30.47;100.00
76358;BME280;65185;21.060;105.826;2023-05-07T12:08:51;100306.66;;;30.47;100.00
76358;BME280;65185;21.060;105.826;2023-05-07T12:11:24;100328.78;;;30.40;100.00
76358;BME280;65185;21.060;105.826;2023-05-07T12:13:51;100343.41;;;30.44;100.00
76358;BME280;65185;21.060;105.826;2023-05-07T12:16:17;100337.53;;;30.35;100.00
76358;BME280;65185;21.060;105.826;2023-05-07T12:18:45;100335.53;;;30.39;100.00
76358;BME280;65185;21.060;105.826;2023-05-07T12:21:12;100335.13;;;30.41;100.00
76358;BME280;65185;21.060;105.826;2023-05-07T12:23:39;100360.84;;;30.45;100.00
76358;BME280;65185;21.060;105.826;2023-05-07T12:26:06;100377.88;;;30.47;100.00
76358;BME280;65185;21.060;105.826;2023-05-07T12:28:37;100390.94;;;30.57;100.00
76358;BME280;65185;21.060;105.826;2023-05-07T12:31:04;100378.28;;;30.52;100.00
76358;BME280;65185;21.060;105.826;2023-05-07T12:33:31;100358.47;;;30.58;100.00
76358;BME280;65185;21.060;105.826;2023-05-07T12:36:03;100361.25;;;30.65;100.00
76358;BME280;65185;21.060;105.826;2023-05-07T12:38:37;100350.16;;;30.65;100.00